sensor_id;sensor_type;location;lat;lon;timestamp;temperature;humidity
42833;DHT22;64089;51.478;5.692;2023-03-01T00:01:21;-1.10;99.90
42833;DHT22;64089;51.478;5.692;2023-03-01T00:03:47;-1.10;99.90
42833;DHT22;64089;51.478;5.692;2023-03-01T00:06:13;-1.10;99.90
42833;DHT22;64089;51.478;5.692;2023-03-01T00:08:39;-1.10;99.90
42833;DHT22;64089;51.478;5.692;2023-03-01T00:13:34;-1.20;99.90
42833;DHT22;64089;51.478;5.692;2023-03-01T00:16:03;-1.30;99.90
42833;DHT22;64089;51.478;5.692;2023-03-01T00:18:28;-1.20;99.90
42833;DHT22;64089;51.478;5.692;2023-03-01T00:20:55;-1.20;99.90
42833;DHT22;64089;51.478;5.692;2023-03-01T00:23:22;-1.20;99.90
42833;DHT22;64089;51.478;5.692;2023-03-01T00:25:48;-1.20;99.90
42833;DHT22;64089;51.478;5.692;2023-03-01T00:28:14;-1.30;99.90
42833;DHT22;64089;51.478;5.692;2023-03-01T00:30:40;-1.20;99.90
42833;DHT22;64089;51.478;5.692;2023-03-01T00:33:06;-1.20;99.90
42833;DHT22;64089;51.478;5.692;2023-03-01T00:35:35;-1.20;99.90
42833;DHT22;64089;51.478;5.692;2023-03-01T00:38:01;-1.20;99.90
42833;DHT22;64089;51.478;5.692;2023-03-01T00:40:28;-1.20;99.90
42833;DHT22;64089;51.478;5.692;2023-03-01T00:42:54;-1.10;99.90
42833;DHT22;64089;51.478;5.692;2023-03-01T00:45:20;-1.10;99.90
42833;DHT22;64089;51.478;5.692;2023-03-01T00:47:49;-1.20;99.90
42833;DHT22;64089;51.478;5.692;2023-03-01T00:50:15;-1.20;99.90
42833;DHT22;64089;51.478;5.692;2023-03-01T00:52:41;-1.20;99.90
42833;DHT22;64089;51.478;5.692;2023-03-01T00:55:07;-1.20;99.90
42833;DHT22;64089;51.478;5.692;2023-03-01T00:57:32;-1.30;99.90
42833;DHT22;64089;51.478;5.692;2023-03-01T00:59:59;-1.30;99.90
42833;DHT22;64089;51.478;5.692;2023-03-01T01:02:24;-1.40;99.90
42833;DHT22;64089;51.478;5.692;2023-03-01T01:04:50;-1.50;99.90
42833;DHT22;64089;51.478;5.692;2023-03-01T01:07:16;-1.60;99.90
42833;DHT22;64089;51.478;5.692;2023-03-01T01:09:42;-1.60;99.90
42833;DHT22;64089;51.478;5.692;2023-03-01T01:12:07;-1.60;99.90
42833;DHT22;64089;51.478;5.692;2023-03-01T01:14:34;-1.60;99.90
42833;DHT22;64089;51.478;5.692;2023-03-01T01:16:59;-1.60;99.90
42833;DHT22;64089;51.478;5.692;2023-03-01T01:19:26;-1.70;99.90
42833;DHT22;64089;51.478;5.692;2023-03-01T01:21:52;-1.70;99.90
42833;DHT22;64089;51.478;5.692;2023-03-01T01:24:21;-1.80;99.90
42833;DHT22;64089;51.478;5.692;2023-03-01T01:26:46;-1.70;99.90
42833;DHT22;64089;51.478;5.692;2023-03-01T01:29:12;-1.80;99.90
42833;DHT22;64089;51.478;5.692;2023-03-01T01:31:39;-1.70;99.90
42833;DHT22;64089;51.478;5.692;2023-03-01T01:34:07;-1.80;99.90
42833;DHT22;64089;51.478;5.692;2023-03-01T01:36:34;-1.80;99.90
42833;DHT22;64089;51.478;5.692;2023-03-01T01:39:00;-1.90;99.90
42833;DHT22;64089;51.478;5.692;2023-03-01T01:41:27;-1.90;99.90
42833;DHT22;64089;51.478;5.692;2023-03-01T01:44:29;-1.90;99.90
42833;DHT22;64089;51.478;5.692;2023-03-01T01:47:14;-1.90;99.90
42833;DHT22;64089;51.478;5.692;2023-03-01T01:49:44;-1.90;99.90
42833;DHT22;64089;51.478;5.692;2023-03-01T01:55:08;-1.80;99.90
42833;DHT22;64089;51.478;5.692;2023-03-01T01:57:39;-1.80;99.90
42833;DHT22;64089;51.478;5.692;2023-03-01T02:00:14;-1.90;99.90
42833;DHT22;64089;51.478;5.692;2023-03-01T02:02:40;-1.90;99.90
42833;DHT22;64089;51.478;5.692;2023-03-01T02:05:34;-1.90;99.90
42833;DHT22;64089;51.478;5.692;2023-03-01T02:08:02;-1.90;99.90
42833;DHT22;64089;51.478;5.692;2023-03-01T02:10:28;-1.90;99.90
42833;DHT22;64089;51.478;5.692;2023-03-01T02:12:54;-2.00;99.90
42833;DHT22;64089;51.478;5.692;2023-03-01T02:15:22;-2.10;99.90
42833;DHT22;64089;51.478;5.692;2023-03-01T02:17:48;-2.00;99.90
42833;DHT22;64089;51.478;5.692;2023-03-01T02:23:00;-1.90;99.90
42833;DHT22;64089;51.478;5.692;2023-03-01T02:25:36;-1.80;99.90
42833;DHT22;64089;51.478;5.692;2023-03-01T02:30:39;-1.80;99.90
42833;DHT22;64089;51.478;5.692;2023-03-01T02:33:26;-1.90;99.90
42833;DHT22;64089;51.478;5.692;2023-03-01T02:35:54;-2.00;99.90
42833;DHT22;64089;51.478;5.692;2023-03-01T02:38:21;-2.00;99.90
42833;DHT22;64089;51.478;5.692;2023-03-01T02:40:49;-2.00;99.90
42833;DHT22;64089;51.478;5.692;2023-03-01T02:43:16;-2.00;99.90
42833;DHT22;64089;51.478;5.692;2023-03-01T02:45:48;-2.10;99.90
42833;DHT22;64089;51.478;5.692;2023-03-01T02:48:15;-2.00;99.90
42833;DHT22;64089;51.478;5.692;2023-03-01T02:51:09;-1.90;99.90
42833;DHT22;64089;51.478;5.692;2023-03-01T02:56:25;-1.80;99.90
42833;DHT22;64089;51.478;5.692;2023-03-01T02:58:51;-1.80;99.90
42833;DHT22;64089;51.478;5.692;2023-03-01T03:01:18;-1.80;99.90
42833;DHT22;64089;51.478;5.692;2023-03-01T03:03:44;-1.70;99.90
42833;DHT22;64089;51.478;5.692;2023-03-01T03:06:10;-1.70;99.90
42833;DHT22;64089;51.478;5.692;2023-03-01T03:08:35;-1.70;99.90
42833;DHT22;64089;51.478;5.692;2023-03-01T03:11:02;-1.70;99.90
42833;DHT22;64089;51.478;5.692;2023-03-01T03:13:27;-1.70;99.90
42833;DHT22;64089;51.478;5.692;2023-03-01T03:15:55;-1.60;99.90
42833;DHT22;64089;51.478;5.692;2023-03-01T03:18:22;-1.50;99.90
42833;DHT22;64089;51.478;5.692;2023-03-01T03:20:48;-1.50;99.90
42833;DHT22;64089;51.478;5.692;2023-03-01T03:23:21;-1.50;99.90
42833;DHT22;64089;51.478;5.692;2023-03-01T03:25:49;-1.40;99.90
42833;DHT22;64089;51.478;5.692;2023-03-01T03:28:15;-1.40;99.90
42833;DHT22;64089;51.478;5.692;2023-03-01T03:30:43;-1.40;99.90
42833;DHT22;64089;51.478;5.692;2023-03-01T03:33:12;-1.40;99.90
42833;DHT22;64089;51.478;5.692;2023-03-01T03:35:47;-1.40;99.90
42833;DHT22;64089;51.478;5.692;2023-03-01T03:38:15;-1.50;99.90
42833;DHT22;64089;51.478;5.692;2023-03-01T03:40:52;-1.50;99.90
42833;DHT22;64089;51.478;5.692;2023-03-01T03:43:22;-1.50;99.90
42833;DHT22;64089;51.478;5.692;2023-03-01T03:45:50;-1.50;99.90
42833;DHT22;64089;51.478;5.692;2023-03-01T03:48:16;-1.50;99.90
42833;DHT22;64089;51.478;5.692;2023-03-01T03:50:41;-1.50;99.90
42833;DHT22;64089;51.478;5.692;2023-03-01T03:53:10;-1.50;99.90
42833;DHT22;64089;51.478;5.692;2023-03-01T03:55:36;-1.50;99.90
42833;DHT22;64089;51.478;5.692;2023-03-01T03:58:05;-1.50;99.90
42833;DHT22;64089;51.478;5.692;2023-03-01T04:00:37;-1.50;99.90
42833;DHT22;64089;51.478;5.692;2023-03-01T04:03:04;-1.50;99.90
42833;DHT22;64089;51.478;5.692;2023-03-01T04:05:29;-1.50;99.90
42833;DHT22;64089;51.478;5.692;2023-03-01T04:07:56;-1.60;99.90
42833;DHT22;64089;51.478;5.692;2023-03-01T04:10:30;-1.60;99.90
42833;DHT22;64089;51.478;5.692;2023-03-01T04:12:56;-1.60;99.90
42833;DHT22;64089;51.478;5.692;2023-03-01T04:15:22;-1.70;99.90
42833;DHT22;64089;51.478;5.692;2023-03-01T04:17:50;-1.70;99.90
42833;DHT22;64089;51.478;5.692;2023-03-01T04:20:24;-1.70;99.90
42833;DHT22;64089;51.478;5.692;2023-03-01T04:23:04;-1.70;99.90
42833;DHT22;64089;51.478;5.692;2023-03-01T04:25:41;-1.70;99.90
42833;DHT22;64089;51.478;5.692;2023-03-01T04:28:08;-1.70;99.90
42833;DHT22;64089;51.478;5.692;2023-03-01T04:30:35;-1.70;99.90
42833;DHT22;64089;51.478;5.692;2023-03-01T04:33:08;-1.70;99.90
42833;DHT22;64089;51.478;5.692;2023-03-01T04:35:35;-1.70;99.90
42833;DHT22;64089;51.478;5.692;2023-03-01T04:38:02;-1.70;99.90
42833;DHT22;64089;51.478;5.692;2023-03-01T04:40:28;-1.60;99.90
42833;DHT22;64089;51.478;5.692;2023-03-01T04:42:54;-1.70;99.90
42833;DHT22;64089;51.478;5.692;2023-03-01T04:45:19;-1.70;99.90
42833;DHT22;64089;51.478;5.692;2023-03-01T04:47:46;-1.70;99.90
42833;DHT22;64089;51.478;5.692;2023-03-01T04:50:15;-1.70;99.90
42833;DHT22;64089;51.478;5.692;2023-03-01T04:52:41;-1.70;99.90
42833;DHT22;64089;51.478;5.692;2023-03-01T04:55:07;-1.80;99.90
42833;DHT22;64089;51.478;5.692;2023-03-01T04:57:33;-1.80;99.90
42833;DHT22;64089;51.478;5.692;2023-03-01T04:59:59;-1.80;99.90
42833;DHT22;64089;51.478;5.692;2023-03-01T05:02:24;-1.80;99.90
42833;DHT22;64089;51.478;5.692;2023-03-01T05:04:50;-1.70;99.90
42833;DHT22;64089;51.478;5.692;2023-03-01T05:07:16;-1.70;99.90
42833;DHT22;64089;51.478;5.692;2023-03-01T05:09:45;-1.70;99.90
42833;DHT22;64089;51.478;5.692;2023-03-01T05:12:12;-1.70;99.90
42833;DHT22;64089;51.478;5.692;2023-03-01T05:14:38;-1.70;99.90
42833;DHT22;64089;51.478;5.692;2023-03-01T05:17:04;-1.70;99.90
42833;DHT22;64089;51.478;5.692;2023-03-01T05:19:31;-1.70;99.90
42833;DHT22;64089;51.478;5.692;2023-03-01T05:21:57;-1.80;99.90
42833;DHT22;64089;51.478;5.692;2023-03-01T05:24:31;-1.80;99.90
42833;DHT22;64089;51.478;5.692;2023-03-01T05:26:57;-1.90;99.90
42833;DHT22;64089;51.478;5.692;2023-03-01T05:29:24;-1.90;99.90
42833;DHT22;64089;51.478;5.692;2023-03-01T05:31:57;-1.90;99.90
42833;DHT22;64089;51.478;5.692;2023-03-01T05:34:32;-1.90;99.90
42833;DHT22;64089;51.478;5.692;2023-03-01T05:36:58;-1.90;99.90
42833;DHT22;64089;51.478;5.692;2023-03-01T05:39:26;-1.90;99.90
42833;DHT22;64089;51.478;5.692;2023-03-01T05:41:53;-1.90;99.90
42833;DHT22;64089;51.478;5.692;2023-03-01T05:44:19;-2.00;99.90
42833;DHT22;64089;51.478;5.692;2023-03-01T05:46:44;-2.00;99.90
42833;DHT22;64089;51.478;5.692;2023-03-01T05:49:11;-2.10;99.90
42833;DHT22;64089;51.478;5.692;2023-03-01T05:51:39;-2.10;99.90
42833;DHT22;64089;51.478;5.692;2023-03-01T05:54:04;-2.10;99.90
42833;DHT22;64089;51.478;5.692;2023-03-01T05:56:33;-2.10;99.90
42833;DHT22;64089;51.478;5.692;2023-03-01T05:58:59;-2.10;99.90
42833;DHT22;64089;51.478;5.692;2023-03-01T06:01:25;-2.20;99.90
42833;DHT22;64089;51.478;5.692;2023-03-01T06:03:50;-2.20;99.90
42833;DHT22;64089;51.478;5.692;2023-03-01T06:06:16;-2.20;99.90
42833;DHT22;64089;51.478;5.692;2023-03-01T06:08:42;-2.20;99.90
42833;DHT22;64089;51.478;5.692;2023-03-01T06:11:07;-2.20;99.90
42833;DHT22;64089;51.478;5.692;2023-03-01T06:13:33;-2.10;99.90
42833;DHT22;64089;51.478;5.692;2023-03-01T06:15:59;-2.20;99.90
42833;DHT22;64089;51.478;5.692;2023-03-01T06:18:24;-2.20;99.90
42833;DHT22;64089;51.478;5.692;2023-03-01T06:20:54;-2.30;99.90
42833;DHT22;64089;51.478;5.692;2023-03-01T06:23:21;-2.30;99.90
42833;DHT22;64089;51.478;5.692;2023-03-01T06:25:46;-2.20;99.90
42833;DHT22;64089;51.478;5.692;2023-03-01T06:28:12;-2.20;99.90
42833;DHT22;64089;51.478;5.692;2023-03-01T06:30:38;-2.20;99.90
42833;DHT22;64089;51.478;5.692;2023-03-01T06:33:03;-2.20;99.90
42833;DHT22;64089;51.478;5.692;2023-03-01T06:35:29;-2.10;99.90
42833;DHT22;64089;51.478;5.692;2023-03-01T06:37:55;-2.10;99.90
42833;DHT22;64089;51.478;5.692;2023-03-01T06:40:21;-2.10;99.90
42833;DHT22;64089;51.478;5.692;2023-03-01T06:42:50;-2.10;99.90
42833;DHT22;64089;51.478;5.692;2023-03-01T06:45:18;-2.00;99.90
42833;DHT22;64089;51.478;5.692;2023-03-01T06:47:44;-2.10;99.90
42833;DHT22;64089;51.478;5.692;2023-03-01T06:50:10;-2.10;99.90
42833;DHT22;64089;51.478;5.692;2023-03-01T06:52:37;-2.10;99.90
42833;DHT22;64089;51.478;5.692;2023-03-01T06:55:04;-2.00;99.90
42833;DHT22;64089;51.478;5.692;2023-03-01T06:57:29;-2.00;99.90
42833;DHT22;64089;51.478;5.692;2023-03-01T06:59:55;-2.00;99.90
42833;DHT22;64089;51.478;5.692;2023-03-01T07:02:21;-2.00;99.90
42833;DHT22;64089;51.478;5.692;2023-03-01T07:04:49;-1.90;99.90
42833;DHT22;64089;51.478;5.692;2023-03-01T07:07:15;-1.90;99.90
42833;DHT22;64089;51.478;5.692;2023-03-01T07:09:41;-1.90;99.90
42833;DHT22;64089;51.478;5.692;2023-03-01T07:12:07;-1.90;99.90
42833;DHT22;64089;51.478;5.692;2023-03-01T07:14:33;-1.80;99.90
42833;DHT22;64089;51.478;5.692;2023-03-01T07:16:58;-1.80;99.90
42833;DHT22;64089;51.478;5.692;2023-03-01T07:19:24;-1.80;99.90
42833;DHT22;64089;51.478;5.692;2023-03-01T07:21:50;-1.80;99.90
42833;DHT22;64089;51.478;5.692;2023-03-01T07:24:15;-1.70;99.90
42833;DHT22;64089;51.478;5.692;2023-03-01T07:26:41;-1.70;99.90
42833;DHT22;64089;51.478;5.692;2023-03-01T07:29:07;-1.70;99.90
42833;DHT22;64089;51.478;5.692;2023-03-01T07:31:34;-1.70;99.90
42833;DHT22;64089;51.478;5.692;2023-03-01T07:34:00;-1.60;99.90
42833;DHT22;64089;51.478;5.692;2023-03-01T07:36:25;-1.50;99.90
42833;DHT22;64089;51.478;5.692;2023-03-01T07:38:51;-1.40;99.90
42833;DHT22;64089;51.478;5.692;2023-03-01T07:41:17;-1.30;99.90
42833;DHT22;64089;51.478;5.692;2023-03-01T07:43:43;-1.30;99.90
42833;DHT22;64089;51.478;5.692;2023-03-01T07:46:08;-1.20;99.90
42833;DHT22;64089;51.478;5.692;2023-03-01T07:48:34;-1.10;99.90
42833;DHT22;64089;51.478;5.692;2023-03-01T07:51:05;-1.10;99.90
42833;DHT22;64089;51.478;5.692;2023-03-01T07:53:31;-1.00;99.90
42833;DHT22;64089;51.478;5.692;2023-03-01T07:56:03;-0.90;99.90
42833;DHT22;64089;51.478;5.692;2023-03-01T07:58:28;-0.80;99.90
42833;DHT22;64089;51.478;5.692;2023-03-01T08:00:54;-0.80;99.90
42833;DHT22;64089;51.478;5.692;2023-03-01T08:03:22;-0.60;99.90
42833;DHT22;64089;51.478;5.692;2023-03-01T08:05:48;-0.50;99.90
42833;DHT22;64089;51.478;5.692;2023-03-01T08:08:14;-0.30;99.90
42833;DHT22;64089;51.478;5.692;2023-03-01T08:10:39;-0.20;99.90
42833;DHT22;64089;51.478;5.692;2023-03-01T08:13:05;-0.10;99.90
42833;DHT22;64089;51.478;5.692;2023-03-01T08:15:30;0.00;99.90
42833;DHT22;64089;51.478;5.692;2023-03-01T08:17:56;0.10;99.90
42833;DHT22;64089;51.478;5.692;2023-03-01T08:20:22;0.10;99.90
42833;DHT22;64089;51.478;5.692;2023-03-01T08:22:47;0.20;99.90
42833;DHT22;64089;51.478;5.692;2023-03-01T08:25:13;0.30;99.90
42833;DHT22;64089;51.478;5.692;2023-03-01T08:27:38;0.60;99.90
42833;DHT22;64089;51.478;5.692;2023-03-01T08:30:04;0.60;99.90
42833;DHT22;64089;51.478;5.692;2023-03-01T08:32:36;0.80;99.90
42833;DHT22;64089;51.478;5.692;2023-03-01T08:35:01;0.90;99.90
42833;DHT22;64089;51.478;5.692;2023-03-01T08:37:27;0.80;99.90
42833;DHT22;64089;51.478;5.692;2023-03-01T08:39:56;0.80;99.90
42833;DHT22;64089;51.478;5.692;2023-03-01T08:42:21;0.90;99.90
42833;DHT22;64089;51.478;5.692;2023-03-01T08:44:47;0.90;99.90
42833;DHT22;64089;51.478;5.692;2023-03-01T08:47:13;1.00;99.90
42833;DHT22;64089;51.478;5.692;2023-03-01T08:49:39;1.00;99.90
42833;DHT22;64089;51.478;5.692;2023-03-01T08:52:06;1.10;99.90
42833;DHT22;64089;51.478;5.692;2023-03-01T08:54:31;1.10;99.90
42833;DHT22;64089;51.478;5.692;2023-03-01T08:56:57;1.20;99.90
42833;DHT22;64089;51.478;5.692;2023-03-01T08:59:25;1.40;99.90
42833;DHT22;64089;51.478;5.692;2023-03-01T09:01:50;1.50;99.90
42833;DHT22;64089;51.478;5.692;2023-03-01T09:04:16;1.60;99.90
42833;DHT22;64089;51.478;5.692;2023-03-01T09:06:42;1.60;99.90
42833;DHT22;64089;51.478;5.692;2023-03-01T09:09:13;1.70;99.90
42833;DHT22;64089;51.478;5.692;2023-03-01T09:11:40;1.70;99.90
42833;DHT22;64089;51.478;5.692;2023-03-01T09:14:06;1.70;99.90
42833;DHT22;64089;51.478;5.692;2023-03-01T09:16:32;1.80;99.90
42833;DHT22;64089;51.478;5.692;2023-03-01T09:19:01;1.90;99.90
42833;DHT22;64089;51.478;5.692;2023-03-01T09:21:26;1.90;99.90
42833;DHT22;64089;51.478;5.692;2023-03-01T09:23:52;2.00;99.90
42833;DHT22;64089;51.478;5.692;2023-03-01T09:26:20;2.00;99.90
42833;DHT22;64089;51.478;5.692;2023-03-01T09:28:50;2.10;99.90
42833;DHT22;64089;51.478;5.692;2023-03-01T09:31:17;2.20;99.90
42833;DHT22;64089;51.478;5.692;2023-03-01T09:33:46;2.30;99.80
42833;DHT22;64089;51.478;5.692;2023-03-01T09:36:15;2.40;99.60
42833;DHT22;64089;51.478;5.692;2023-03-01T09:38:41;2.50;99.50
42833;DHT22;64089;51.478;5.692;2023-03-01T09:44:24;2.60;98.50
42833;DHT22;64089;51.478;5.692;2023-03-01T09:46:52;2.70;98.20
42833;DHT22;64089;51.478;5.692;2023-03-01T09:49:27;2.80;97.40
42833;DHT22;64089;51.478;5.692;2023-03-01T09:52:09;2.80;97.40
42833;DHT22;64089;51.478;5.692;2023-03-01T09:54:37;3.00;97.50
42833;DHT22;64089;51.478;5.692;2023-03-01T09:57:17;3.20;96.90
42833;DHT22;64089;51.478;5.692;2023-03-01T10:00:01;3.20;97.30
42833;DHT22;64089;51.478;5.692;2023-03-01T10:02:41;3.20;96.70
42833;DHT22;64089;51.478;5.692;2023-03-01T10:10:26;3.20;96.50
42833;DHT22;64089;51.478;5.692;2023-03-01T10:12:53;3.20;96.80
42833;DHT22;64089;51.478;5.692;2023-03-01T10:15:54;3.30;96.10
42833;DHT22;64089;51.478;5.692;2023-03-01T10:18:31;3.40;96.30
42833;DHT22;64089;51.478;5.692;2023-03-01T10:20:59;3.40;96.10
42833;DHT22;64089;51.478;5.692;2023-03-01T10:23:26;3.50;96.40
42833;DHT22;64089;51.478;5.692;2023-03-01T10:28:40;3.70;96.10
42833;DHT22;64089;51.478;5.692;2023-03-01T10:31:24;3.70;95.90
42833;DHT22;64089;51.478;5.692;2023-03-01T10:34:02;3.90;95.50
42833;DHT22;64089;51.478;5.692;2023-03-01T10:36:32;3.90;95.80
42833;DHT22;64089;51.478;5.692;2023-03-01T10:38:59;4.00;95.50
42833;DHT22;64089;51.478;5.692;2023-03-01T10:41:26;4.00;95.00
42833;DHT22;64089;51.478;5.692;2023-03-01T10:43:57;4.00;95.00
42833;DHT22;64089;51.478;5.692;2023-03-01T10:46:31;4.00;95.10
42833;DHT22;64089;51.478;5.692;2023-03-01T10:49:22;4.10;94.90
42833;DHT22;64089;51.478;5.692;2023-03-01T10:51:50;4.30;95.00
42833;DHT22;64089;51.478;5.692;2023-03-01T10:54:23;4.50;95.00
42833;DHT22;64089;51.478;5.692;2023-03-01T10:56:55;4.50;94.50
42833;DHT22;64089;51.478;5.692;2023-03-01T10:59:30;4.60;94.30
42833;DHT22;64089;51.478;5.692;2023-03-01T11:02:24;4.60;94.50
42833;DHT22;64089;51.478;5.692;2023-03-01T11:08:06;4.70;93.10
42833;DHT22;64089;51.478;5.692;2023-03-01T11:10:34;4.60;93.30
42833;DHT22;64089;51.478;5.692;2023-03-01T11:13:18;4.60;93.20
42833;DHT22;64089;51.478;5.692;2023-03-01T11:16:03;4.70;93.60
42833;DHT22;64089;51.478;5.692;2023-03-01T11:18:30;4.70;93.30
42833;DHT22;64089;51.478;5.692;2023-03-01T11:20:56;4.80;93.80
42833;DHT22;64089;51.478;5.692;2023-03-01T11:23:24;4.90;93.30
42833;DHT22;64089;51.478;5.692;2023-03-01T11:25:55;4.90;93.10
42833;DHT22;64089;51.478;5.692;2023-03-01T11:28:22;4.90;93.20
42833;DHT22;64089;51.478;5.692;2023-03-01T11:30:53;5.00;93.20
42833;DHT22;64089;51.478;5.692;2023-03-01T11:38:38;5.20;93.00
42833;DHT22;64089;51.478;5.692;2023-03-01T11:41:17;5.20;93.10
42833;DHT22;64089;51.478;5.692;2023-03-01T11:52:17;5.40;92.10
42833;DHT22;64089;51.478;5.692;2023-03-01T12:16:40;5.60;91.30
42833;DHT22;64089;51.478;5.692;2023-03-01T12:41:18;5.80;92.20
42833;DHT22;64089;51.478;5.692;2023-03-01T12:46:32;6.00;91.90
42833;DHT22;64089;51.478;5.692;2023-03-01T12:49:21;6.00;91.30
42833;DHT22;64089;51.478;5.692;2023-03-01T12:51:56;6.20;91.50
42833;DHT22;64089;51.478;5.692;2023-03-01T12:54:31;6.20;91.30
42833;DHT22;64089;51.478;5.692;2023-03-01T12:57:06;6.30;91.80
42833;DHT22;64089;51.478;5.692;2023-03-01T12:59:59;6.40;91.90
42833;DHT22;64089;51.478;5.692;2023-03-01T13:02:36;6.40;91.90
42833;DHT22;64089;51.478;5.692;2023-03-01T13:05:21;6.30;91.70
42833;DHT22;64089;51.478;5.692;2023-03-01T13:08:00;6.30;91.50
42833;DHT22;64089;51.478;5.692;2023-03-01T13:18:01;6.20;91.00
42833;DHT22;64089;51.478;5.692;2023-03-01T13:20:31;6.20;91.20
42833;DHT22;64089;51.478;5.692;2023-03-01T13:30:58;6.40;91.60
42833;DHT22;64089;51.478;5.692;2023-03-01T13:35:52;6.70;91.30
42833;DHT22;64089;51.478;5.692;2023-03-01T13:38:38;6.60;90.90
42833;DHT22;64089;51.478;5.692;2023-03-01T13:41:05;6.50;90.80
42833;DHT22;64089;51.478;5.692;2023-03-01T13:43:38;6.50;91.30
42833;DHT22;64089;51.478;5.692;2023-03-01T13:46:17;6.50;91.20
42833;DHT22;64089;51.478;5.692;2023-03-01T13:48:49;6.70;91.40
42833;DHT22;64089;51.478;5.692;2023-03-01T13:51:16;6.70;91.40
42833;DHT22;64089;51.478;5.692;2023-03-01T13:53:46;6.70;91.20
42833;DHT22;64089;51.478;5.692;2023-03-01T13:58:50;6.70;91.10
42833;DHT22;64089;51.478;5.692;2023-03-01T14:01:44;6.70;90.50
42833;DHT22;64089;51.478;5.692;2023-03-01T14:04:31;6.60;90.50
42833;DHT22;64089;51.478;5.692;2023-03-01T14:07:22;6.70;90.70
42833;DHT22;64089;51.478;5.692;2023-03-01T14:09:55;6.80;90.50
42833;DHT22;64089;51.478;5.692;2023-03-01T14:18:06;6.90;90.90
42833;DHT22;64089;51.478;5.692;2023-03-01T14:20:46;7.00;91.00
42833;DHT22;64089;51.478;5.692;2023-03-01T14:23:20;7.10;90.60
42833;DHT22;64089;51.478;5.692;2023-03-01T14:25:57;7.00;90.00
42833;DHT22;64089;51.478;5.692;2023-03-01T14:28:28;7.00;89.50
42833;DHT22;64089;51.478;5.692;2023-03-01T14:30:57;7.10;90.10
42833;DHT22;64089;51.478;5.692;2023-03-01T14:33:35;7.20;89.60
42833;DHT22;64089;51.478;5.692;2023-03-01T14:36:12;7.20;89.60
42833;DHT22;64089;51.478;5.692;2023-03-01T14:38:40;7.20;89.10
42833;DHT22;64089;51.478;5.692;2023-03-01T14:41:16;7.10;89.60
42833;DHT22;64089;51.478;5.692;2023-03-01T14:46:38;7.10;90.10
42833;DHT22;64089;51.478;5.692;2023-03-01T14:49:17;7.20;90.20
42833;DHT22;64089;51.478;5.692;2023-03-01T14:52:00;7.20;90.00
42833;DHT22;64089;51.478;5.692;2023-03-01T14:54:38;7.10;90.00
42833;DHT22;64089;51.478;5.692;2023-03-01T14:57:05;7.20;90.10
42833;DHT22;64089;51.478;5.692;2023-03-01T14:59:33;7.30;89.70
42833;DHT22;64089;51.478;5.692;2023-03-01T15:02:00;7.10;88.40
42833;DHT22;64089;51.478;5.692;2023-03-01T15:04:27;7.00;89.70
42833;DHT22;64089;51.478;5.692;2023-03-01T15:06:55;7.20;90.00
42833;DHT22;64089;51.478;5.692;2023-03-01T15:09:22;7.10;88.90
42833;DHT22;64089;51.478;5.692;2023-03-01T15:11:48;7.10;89.40
42833;DHT22;64089;51.478;5.692;2023-03-01T15:14:40;7.10;89.00
42833;DHT22;64089;51.478;5.692;2023-03-01T15:17:30;7.00;89.30
42833;DHT22;64089;51.478;5.692;2023-03-01T15:19:57;7.00;88.80
42833;DHT22;64089;51.478;5.692;2023-03-01T15:22:25;7.00;88.00
42833;DHT22;64089;51.478;5.692;2023-03-01T15:24:51;7.00;87.80
42833;DHT22;64089;51.478;5.692;2023-03-01T15:27:19;7.10;88.50
42833;DHT22;64089;51.478;5.692;2023-03-01T15:29:59;7.00;88.20
42833;DHT22;64089;51.478;5.692;2023-03-01T15:32:29;6.90;88.30
42833;DHT22;64089;51.478;5.692;2023-03-01T15:34:56;6.90;88.90
42833;DHT22;64089;51.478;5.692;2023-03-01T15:37:45;6.90;90.00
42833;DHT22;64089;51.478;5.692;2023-03-01T15:40:26;7.00;88.40
42833;DHT22;64089;51.478;5.692;2023-03-01T15:42:59;7.30;89.20
42833;DHT22;64089;51.478;5.692;2023-03-01T15:45:28;7.40;87.80
42833;DHT22;64089;51.478;5.692;2023-03-01T15:47:59;7.40;86.30
42833;DHT22;64089;51.478;5.692;2023-03-01T15:50:34;7.40;87.00
42833;DHT22;64089;51.478;5.692;2023-03-01T15:53:05;7.60;87.10
42833;DHT22;64089;51.478;5.692;2023-03-01T15:55:32;7.60;87.20
42833;DHT22;64089;51.478;5.692;2023-03-01T15:58:22;7.60;87.10
42833;DHT22;64089;51.478;5.692;2023-03-01T16:00:49;7.60;87.60
42833;DHT22;64089;51.478;5.692;2023-03-01T16:03:17;7.60;87.50
42833;DHT22;64089;51.478;5.692;2023-03-01T16:05:47;7.60;87.80
42833;DHT22;64089;51.478;5.692;2023-03-01T16:08:13;7.60;88.10
42833;DHT22;64089;51.478;5.692;2023-03-01T16:10:40;7.60;89.40
42833;DHT22;64089;51.478;5.692;2023-03-01T16:13:07;7.50;87.70
42833;DHT22;64089;51.478;5.692;2023-03-01T16:15:33;7.50;88.70
42833;DHT22;64089;51.478;5.692;2023-03-01T16:18:00;7.50;89.00
42833;DHT22;64089;51.478;5.692;2023-03-01T16:20:27;7.50;88.90
42833;DHT22;64089;51.478;5.692;2023-03-01T16:22:53;7.50;88.30
42833;DHT22;64089;51.478;5.692;2023-03-01T16:25:20;7.40;89.20
42833;DHT22;64089;51.478;5.692;2023-03-01T16:27:49;7.30;88.00
42833;DHT22;64089;51.478;5.692;2023-03-01T16:30:18;7.30;87.90
42833;DHT22;64089;51.478;5.692;2023-03-01T16:32:45;7.30;87.70
42833;DHT22;64089;51.478;5.692;2023-03-01T16:35:13;7.20;87.10
42833;DHT22;64089;51.478;5.692;2023-03-01T16:37:39;7.10;87.30
42833;DHT22;64089;51.478;5.692;2023-03-01T16:40:06;7.00;87.40
42833;DHT22;64089;51.478;5.692;2023-03-01T16:42:37;7.00;88.70
42833;DHT22;64089;51.478;5.692;2023-03-01T16:45:03;6.90;88.70
42833;DHT22;64089;51.478;5.692;2023-03-01T16:47:29;6.90;88.70
42833;DHT22;64089;51.478;5.692;2023-03-01T16:49:55;6.90;88.10
42833;DHT22;64089;51.478;5.692;2023-03-01T16:52:21;6.80;88.30
42833;DHT22;64089;51.478;5.692;2023-03-01T16:54:47;6.60;88.20
42833;DHT22;64089;51.478;5.692;2023-03-01T16:57:14;6.50;89.60
42833;DHT22;64089;51.478;5.692;2023-03-01T16:59:39;6.40;88.60
42833;DHT22;64089;51.478;5.692;2023-03-01T17:02:08;6.20;88.90
42833;DHT22;64089;51.478;5.692;2023-03-01T17:04:36;6.10;88.90
42833;DHT22;64089;51.478;5.692;2023-03-01T17:07:02;6.10;90.20
42833;DHT22;64089;51.478;5.692;2023-03-01T17:09:27;5.90;90.00
42833;DHT22;64089;51.478;5.692;2023-03-01T17:11:53;5.90;90.30
42833;DHT22;64089;51.478;5.692;2023-03-01T17:14:20;5.90;90.40
42833;DHT22;64089;51.478;5.692;2023-03-01T17:16:48;5.70;90.40
42833;DHT22;64089;51.478;5.692;2023-03-01T17:19:14;5.60;90.40
42833;DHT22;64089;51.478;5.692;2023-03-01T17:21:44;5.50;90.90
42833;DHT22;64089;51.478;5.692;2023-03-01T17:24:10;5.50;91.10
42833;DHT22;64089;51.478;5.692;2023-03-01T17:26:37;5.40;91.50
42833;DHT22;64089;51.478;5.692;2023-03-01T17:29:03;5.30;91.50
42833;DHT22;64089;51.478;5.692;2023-03-01T17:31:30;5.20;91.70
42833;DHT22;64089;51.478;5.692;2023-03-01T17:33:56;5.10;92.10
42833;DHT22;64089;51.478;5.692;2023-03-01T17:36:21;5.00;92.10
42833;DHT22;64089;51.478;5.692;2023-03-01T17:38:47;4.80;91.90
42833;DHT22;64089;51.478;5.692;2023-03-01T17:41:14;4.80;92.70
42833;DHT22;64089;51.478;5.692;2023-03-01T17:43:42;4.70;92.70
42833;DHT22;64089;51.478;5.692;2023-03-01T17:46:07;4.90;95.00
42833;DHT22;64089;51.478;5.692;2023-03-01T17:48:33;5.00;95.30